Time;durP1;ratioP1;P1;durP2;ratioP2;P2;SDS_P1;SDS_P2;PMS_P1;PMS_P2;Temp;Humidity;BMP_temperature;BMP_pressure;BME280_temperature;BME280_humidity;BME280_pressure;Samples;Min_cycle;Max_cycle;Signal;HPM_P1;HPM_P2
2022/07/14 00:01:10;;;;;;;3.08;2.38;;;;;;;;;;5040909;28;20444;-64
2022/07/14 00:03:36;;;;;;;2.00;1.65;;;;;;;;;;5035623;28;20597;-63
2022/07/14 00:06:01;;;;;;;3.70;2.00;;;;;;;;;;5020694;28;20040;-63
2022/07/14 00:08:26;;;;;;;2.83;1.98;;;;;;;;;;5054909;28;20035;-63
2022/07/14 00:10:52;;;;;;;2.60;1.90;;;;;;;;;;5039471;28;20107;-64
2022/07/14 00:13:17;;;;;;;2.05;1.88;;;;;;;;;;5054675;28;20490;-64
2022/07/14 00:15:42;;;;;;;2.00;1.90;;;;;;;;;;5054625;28;20379;-64
2022/07/14 00:18:08;;;;;;;3.00;2.10;;;;;;;;;;5054613;28;20025;-64
2022/07/14 00:20:33;;;;;;;2.30;2.10;;;;;;;;;;5054240;28;20028;-64
2022/07/14 00:22:58;;;;;;;2.80;2.70;;;;;;;;;;5052761;28;20020;-64
2022/07/14 00:25:24;;;;;;;2.28;1.95;;;;;;;;;;5054466;28;20425;-64
2022/07/14 00:27:50;;;;;;;4.97;2.00;;;;;;;;;;5055141;28;20055;-64
2022/07/14 00:30:15;;;;;;;2.38;2.28;;;;;;;;;;5039198;28;20029;-64
2022/07/14 00:32:40;;;;;;;2.28;2.17;;;;;;;;;;5055033;28;20110;-64
2022/07/14 00:35:06;;;;;;;4.22;2.17;;;;;;;;;;5053303;28;20473;-65
2022/07/14 00:37:31;;;;;;;2.10;1.85;;;;;;;;;;5052334;28;20493;-64
2022/07/14 00:39:57;;;;;;;2.20;2.10;;;;;;;;;;5054979;28;20614;-63
2022/07/14 00:42:35;;;;;;;3.47;2.15;;;;;;;;;;5036247;28;20024;-63
2022/07/14 00:45:05;;;;;;;2.33;2.13;;;;;;;;;;5035930;28;20062;-63
2022/07/14 00:47:31;;;;;;;2.85;2.05;;;;;;;;;;5038210;28;20029;-66
2022/07/14 00:49:56;;;;;;;1.92;1.83;;;;;;;;;;5052601;28;20528;-63
2022/07/14 00:52:22;;;;;;;2.90;1.95;;;;;;;;;;5054349;28;20071;-63
2022/07/14 00:54:47;;;;;;;2.53;1.92;;;;;;;;;;5054407;28;20028;-64
2022/07/14 00:57:13;;;;;;;2.47;2.17;;;;;;;;;;5054013;28;20432;-64
2022/07/14 00:59:38;;;;;;;2.00;1.90;;;;;;;;;;5028514;28;20431;-64
2022/07/14 01:02:03;;;;;;;1.90;1.80;;;;;;;;;;5052210;28;20033;-64
2022/07/14 01:04:32;;;;;;;2.38;2.00;;;;;;;;;;5053761;28;21093;-64
2022/07/14 01:06:57;;;;;;;2.33;2.10;;;;;;;;;;5038157;28;20453;-64
2022/07/14 01:09:22;;;;;;;3.65;1.88;;;;;;;;;;5053306;28;20036;-64
2022/07/14 01:11:47;;;;;;;2.05;1.88;;;;;;;;;;5052923;28;20052;-64
2022/07/14 01:14:13;;;;;;;2.65;2.10;;;;;;;;;;5051837;28;20028;-64
2022/07/14 01:16:38;;;;;;;2.13;2.03;;;;;;;;;;5050412;28;20407;-64
2022/07/14 01:19:03;;;;;;;2.15;1.90;;;;;;;;;;5052101;28;20466;-64
2022/07/14 01:21:29;;;;;;;2.15;1.92;;;;;;;;;;5053034;28;20487;-64
2022/07/14 01:23:54;;;;;;;2.05;2.00;;;;;;;;;;5038202;28;20086;-64
2022/07/14 01:26:19;;;;;;;2.63;2.30;;;;;;;;;;5051780;28;20430;-64
2022/07/14 01:28:45;;;;;;;2.35;2.25;;;;;;;;;;5038019;28;20093;-64
2022/07/14 01:31:10;;;;;;;2.80;2.60;;;;;;;;;;5032892;28;20033;-64
2022/07/14 01:33:35;;;;;;;2.28;2.17;;;;;;;;;;5052618;28;20470;-64
2022/07/14 01:36:01;;;;;;;2.58;2.35;;;;;;;;;;5052809;28;20083;-64
2022/07/14 01:38:26;;;;;;;2.08;1.98;;;;;;;;;;5047844;28;20067;-63
2022/07/14 01:40:51;;;;;;;4.97;2.10;;;;;;;;;;5073269;28;20073;-63
2022/07/14 01:43:17;;;;;;;2.25;2.15;;;;;;;;;;5071569;28;20032;-63
2022/07/14 01:45:43;;;;;;;2.00;1.90;;;;;;;;;;5071889;28;20052;-63
2022/07/14 01:48:09;;;;;;;2.00;1.90;;;;;;;;;;5071565;28;20086;-63
2022/07/14 01:50:34;;;;;;;2.25;2.15;;;;;;;;;;5073668;28;20556;-66
2022/07/14 01:52:59;;;;;;;1.98;1.88;;;;;;;;;;5072809;28;20504;-63
2022/07/14 01:55:24;;;;;;;1.70;1.60;;;;;;;;;;5072275;28;20431;-64
2022/07/14 01:57:50;;;;;;;2.00;1.90;;;;;;;;;;5072877;28;20027;-63
2022/07/14 02:00:16;;;;;;;2.20;2.10;;;;;;;;;;5071328;28;20029;-63
2022/07/14 02:02:41;;;;;;;3.03;2.30;;;;;;;;;;5072625;28;20075;-63
2022/07/14 02:05:10;;;;;;;2.08;1.98;;;;;;;;;;5074551;28;20475;-63
2022/07/14 02:07:35;;;;;;;2.38;1.85;;;;;;;;;;5072373;28;20078;-63
2022/07/14 02:12:45;;;;;;;2.30;2.20;;;;;;;;;;5070889;28;20070;-63
2022/07/14 02:15:10;;;;;;;2.70;2.50;;;;;;;;;;5072187;28;20425;-63
2022/07/14 02:17:35;;;;;;;2.20;2.10;;;;;;;;;;5069566;28;20426;-63
2022/07/14 02:20:01;;;;;;;1.92;1.83;;;;;;;;;;5073773;28;20119;-63
2022/07/14 02:22:27;;;;;;;2.15;2.05;;;;;;;;;;5073867;28;20119;-64
2022/07/14 02:24:52;;;;;;;1.98;1.88;;;;;;;;;;5072687;28;20033;-63
2022/07/14 02:27:18;;;;;;;1.77;1.70;;;;;;;;;;5072671;28;20232;-63
2022/07/14 02:29:43;;;;;;;1.90;1.80;;;;;;;;;;5080165;28;20039;-64
2022/07/14 02:32:08;;;;;;;3.13;1.92;;;;;;;;;;5073280;28;20515;-63
2022/07/14 02:34:33;;;;;;;2.30;2.20;;;;;;;;;;5072192;28;20028;-63
2022/07/14 02:36:59;;;;;;;2.28;2.08;;;;;;;;;;5071706;28;20525;-64
2022/07/14 02:39:24;;;;;;;2.55;2.00;;;;;;;;;;5058269;28;20056;-63
2022/07/14 02:41:49;;;;;;;2.00;1.90;;;;;;;;;;5052354;28;20473;-64
2022/07/14 02:44:15;;;;;;;2.20;2.00;;;;;;;;;;5051649;28;20066;-64
2022/07/14 02:46:40;;;;;;;2.20;2.00;;;;;;;;;;5019925;28;20078;-64
2022/07/14 02:49:05;;;;;;;2.30;2.20;;;;;;;;;;5050153;28;20082;-63
2022/07/14 02:51:31;;;;;;;2.40;2.20;;;;;;;;;;5052444;28;20115;-64
2022/07/14 02:53:56;;;;;;;2.03;1.88;;;;;;;;;;5050553;28;20429;-64
2022/07/14 02:56:21;;;;;;;1.95;1.85;;;;;;;;;;5051776;28;20083;-64
2022/07/14 02:58:47;;;;;;;1.98;1.80;;;;;;;;;;5051368;28;20056;-63
2022/07/14 03:01:12;;;;;;;2.00;1.88;;;;;;;;;;5051920;28;20033;-63
2022/07/14 03:03:37;;;;;;;1.75;1.75;;;;;;;;;;5051644;28;20412;-64
2022/07/14 03:06:13;;;;;;;2.00;1.83;;;;;;;;;;5050538;28;20036;-63
2022/07/14 03:08:39;;;;;;;2.53;2.33;;;;;;;;;;5051776;28;20105;-63
2022/07/14 03:11:04;;;;;;;3.10;1.80;;;;;;;;;;5052058;28;20115;-63
2022/07/14 03:13:30;;;;;;;2.13;2.03;;;;;;;;;;5055639;28;20028;-65
2022/07/14 03:15:55;;;;;;;2.28;2.08;;;;;;;;;;5055205;28;20028;-64
2022/07/14 03:18:20;;;;;;;2.10;1.98;;;;;;;;;;5054297;28;20029;-65
2022/07/14 03:20:46;;;;;;;2.50;2.30;;;;;;;;;;5055861;28;20039;-64
2022/07/14 03:23:11;;;;;;;3.28;3.08;;;;;;;;;;5041289;28;20037;-64
2022/07/14 03:25:36;;;;;;;4.18;3.78;;;;;;;;;;5053017;28;20020;-64
2022/07/14 03:28:01;;;;;;;2.65;2.55;;;;;;;;;;5055911;28;20036;-63
2022/07/14 03:30:27;;;;;;;2.78;2.58;;;;;;;;;;5056220;28;20095;-64
2022/07/14 03:32:52;;;;;;;2.40;2.30;;;;;;;;;;5040359;28;20059;-63
2022/07/14 03:35:17;;;;;;;2.35;2.25;;;;;;;;;;5055346;28;20395;-63
2022/07/14 03:37:43;;;;;;;2.13;1.80;;;;;;;;;;5046494;28;20032;-63
2022/07/14 03:40:08;;;;;;;2.40;2.30;;;;;;;;;;5037080;28;20071;-63
2022/07/14 03:42:34;;;;;;;2.42;2.30;;;;;;;;;;5056803;28;20111;-64
2022/07/14 03:44:59;;;;;;;2.00;2.00;;;;;;;;;;5055038;28;20058;-64
2022/07/14 03:47:24;;;;;;;2.08;1.98;;;;;;;;;;5055542;28;20041;-64
2022/07/14 03:49:49;;;;;;;2.00;1.90;;;;;;;;;;5055287;28;20064;-64
2022/07/14 03:52:15;;;;;;;2.28;2.17;;;;;;;;;;5055254;28;20022;-63
2022/07/14 03:54:46;;;;;;;2.22;1.98;;;;;;;;;;5052913;28;20502;-64
2022/07/14 03:57:12;;;;;;;2.40;2.20;;;;;;;;;;5055669;28;20498;-63
2022/07/14 03:59:40;;;;;;;3.10;2.17;;;;;;;;;;5053740;28;20051;-66
2022/07/14 04:02:06;;;;;;;2.28;2.17;;;;;;;;;;5053420;28;20513;-64
2022/07/14 04:04:32;;;;;;;2.10;2.00;;;;;;;;;;5055175;28;20025;-64
2022/07/14 04:06:57;;;;;;;2.17;2.08;;;;;;;;;;5054169;28;20475;-64
2022/07/14 04:09:23;;;;;;;2.78;2.58;;;;;;;;;;5055666;28;20486;-64
2022/07/14 04:11:48;;;;;;;2.50;2.30;;;;;;;;;;5053403;28;20502;-65
2022/07/14 04:14:13;;;;;;;2.13;2.03;;;;;;;;;;5035854;28;20393;-65
2022/07/14 04:16:41;;;;;;;2.03;1.92;;;;;;;;;;5054586;28;20029;-65
2022/07/14 04:19:07;;;;;;;2.65;2.33;;;;;;;;;;5054120;28;20649;-64
2022/07/14 04:21:32;;;;;;;2.25;2.05;;;;;;;;;;5036097;28;20124;-65
2022/07/14 04:23:58;;;;;;;2.15;2.05;;;;;;;;;;5053472;28;20033;-64
2022/07/14 04:26:23;;;;;;;2.30;2.10;;;;;;;;;;5052737;28;20032;-63
2022/07/14 04:28:48;;;;;;;2.28;2.17;;;;;;;;;;5052710;28;20036;-65
2022/07/14 04:31:13;;;;;;;2.30;2.20;;;;;;;;;;5054618;28;20124;-65
2022/07/14 04:33:39;;;;;;;2.38;2.08;;;;;;;;;;5054314;28;20102;-64
2022/07/14 04:36:04;;;;;;;1.90;1.90;;;;;;;;;;5039072;28;20032;-63
2022/07/14 04:38:30;;;;;;;2.50;2.40;;;;;;;;;;5054813;28;20136;-63
2022/07/14 04:40:55;;;;;;;2.58;2.38;;;;;;;;;;5051906;28;20833;-63
2022/07/14 04:43:21;;;;;;;5.57;3.22;;;;;;;;;;5053498;28;20036;-63
2022/07/14 04:45:46;;;;;;;4.10;2.70;;;;;;;;;;5054893;28;20574;-63
2022/07/14 04:48:12;;;;;;;6.45;2.78;;;;;;;;;;5054972;28;20405;-63
2022/07/14 04:53:21;;;;;;;2.75;2.58;;;;;;;;;;5052846;28;20032;-63
2022/07/14 04:55:46;;;;;;;3.20;3.00;;;;;;;;;;5054559;28;20399;-65
2022/07/14 04:58:11;;;;;;;2.78;2.60;;;;;;;;;;5053226;28;20056;-64
2022/07/14 05:00:37;;;;;;;3.00;2.75;;;;;;;;;;5053340;28;20135;-64
2022/07/14 05:03:03;;;;;;;4.00;3.42;;;;;;;;;;5053778;28;20025;-63
2022/07/14 05:05:28;;;;;;;2.58;2.25;;;;;;;;;;5037052;28;20091;-63
2022/07/14 05:07:54;;;;;;;4.07;2.83;;;;;;;;;;5052812;28;20443;-64
2022/07/14 05:10:19;;;;;;;3.00;2.75;;;;;;;;;;5053226;28;20082;-64
2022/07/14 05:12:44;;;;;;;2.85;2.63;;;;;;;;;;5053017;28;20032;-62
2022/07/14 05:15:10;;;;;;;2.60;2.40;;;;;;;;;;5055179;28;20565;-65
2022/07/14 05:17:35;;;;;;;2.85;2.35;;;;;;;;;;5052853;28;20370;-64
2022/07/14 05:20:00;;;;;;;1.90;1.80;;;;;;;;;;5052693;28;20028;-64
2022/07/14 05:22:26;;;;;;;3.03;2.38;;;;;;;;;;5051758;28;20025;-64
2022/07/14 05:24:51;;;;;;;2.63;2.20;;;;;;;;;;5053260;28;20562;-64
2022/07/14 05:27:16;;;;;;;3.05;2.35;;;;;;;;;;5054110;28;20346;-64
2022/07/14 05:29:42;;;;;;;2.45;2.35;;;;;;;;;;5052785;28;20413;-65
2022/07/14 05:32:07;;;;;;;2.30;2.20;;;;;;;;;;5051758;28;20167;-64
2022/07/14 05:34:32;;;;;;;2.28;2.17;;;;;;;;;;5052847;28;20047;-63
2022/07/14 05:36:58;;;;;;;2.47;2.28;;;;;;;;;;5053860;28;20083;-63
2022/07/14 05:39:24;;;;;;;2.58;2.03;;;;;;;;;;5053673;28;20057;-64
2022/07/14 05:41:49;;;;;;;2.58;2.00;;;;;;;;;;5051849;28;20077;-63
2022/07/14 05:44:14;;;;;;;2.30;2.10;;;;;;;;;;5052023;28;20471;-64
2022/07/14 05:46:40;;;;;;;1.92;1.83;;;;;;;;;;5053608;28;20059;-63
2022/07/14 05:49:05;;;;;;;2.17;1.95;;;;;;;;;;5053819;28;20141;-64
2022/07/14 05:51:30;;;;;;;2.85;1.60;;;;;;;;;;5052067;28;20030;-63
2022/07/14 05:53:55;;;;;;;4.18;1.80;;;;;;;;;;5052428;28;20071;-64
2022/07/14 05:56:21;;;;;;;4.18;1.85;;;;;;;;;;5037671;28;20040;-63
2022/07/14 05:58:47;;;;;;;2.20;2.10;;;;;;;;;;5053713;28;20045;-63
2022/07/14 06:01:13;;;;;;;4.50;1.92;;;;;;;;;;5051496;28;20029;-63
2022/07/14 06:03:38;;;;;;;1.98;1.75;;;;;;;;;;5051995;28;20535;-63
2022/07/14 06:06:05;;;;;;;2.08;1.88;;;;;;;;;;5051333;28;20037;-63
2022/07/14 06:08:30;;;;;;;1.67;1.58;;;;;;;;;;5053156;28;20024;-63
2022/07/14 06:10:56;;;;;;;2.03;1.92;;;;;;;;;;5052047;28;20100;-63
2022/07/14 06:13:25;;;;;;;2.00;1.90;;;;;;;;;;5051827;28;20032;-64
2022/07/14 06:15:51;;;;;;;1.90;1.80;;;;;;;;;;5053638;28;20021;-64
2022/07/14 06:18:17;;;;;;;3.38;1.85;;;;;;;;;;5053037;28;20036;-63
2022/07/14 06:20:42;;;;;;;1.52;1.48;;;;;;;;;;5033819;28;20033;-62
2022/07/14 06:23:09;;;;;;;1.88;1.77;;;;;;;;;;5053207;28;20028;-63
2022/07/14 06:25:34;;;;;;;1.80;1.67;;;;;;;;;;5052953;28;20029;-64
2022/07/14 06:28:00;;;;;;;1.42;1.33;;;;;;;;;;5052095;28;20032;-64
2022/07/14 06:30:25;;;;;;;1.77;1.67;;;;;;;;;;5051959;28;20051;-64
2022/07/14 06:32:51;;;;;;;1.80;1.70;;;;;;;;;;5052472;28;20150;-63
2022/07/14 06:35:16;;;;;;;1.77;1.67;;;;;;;;;;5050909;28;20029;-63
2022/07/14 06:37:41;;;;;;;2.45;2.08;;;;;;;;;;5050917;28;20047;-64
2022/07/14 06:40:07;;;;;;;1.92;1.75;;;;;;;;;;5052802;28;20025;-63
2022/07/14 06:42:32;;;;;;;2.30;2.20;;;;;;;;;;5050186;28;20032;-64
2022/07/14 06:44:58;;;;;;;2.00;1.90;;;;;;;;;;5054346;28;20307;-64
2022/07/14 06:47:23;;;;;;;3.20;1.80;;;;;;;;;;5058050;28;20585;-64
2022/07/14 06:49:48;;;;;;;2.22;2.03;;;;;;;;;;5058401;28;20111;-63
2022/07/14 06:52:13;;;;;;;2.20;2.10;;;;;;;;;;5058795;28;20083;-63
2022/07/14 06:54:39;;;;;;;2.70;2.42;;;;;;;;;;5057255;28;20036;-63
2022/07/14 06:57:04;;;;;;;2.35;2.25;;;;;;;;;;5042982;28;20466;-64
2022/07/14 06:59:29;;;;;;;3.90;2.58;;;;;;;;;;5058578;28;20399;-64
2022/07/14 07:01:55;;;;;;;1.40;1.30;;;;;;;;;;5040834;28;20032;-64
2022/07/14 07:04:20;;;;;;;1.73;1.67;;;;;;;;;;5040609;28;20029;-64
2022/07/14 07:06:45;;;;;;;2.08;1.92;;;;;;;;;;5058235;28;20082;-64
2022/07/14 07:09:14;;;;;;;1.92;1.92;;;;;;;;;;5041160;28;20021;-64
2022/07/14 07:11:41;;;;;;;2.08;2.05;;;;;;;;;;5057529;28;20041;-66
2022/07/14 07:14:06;;;;;;;2.28;2.17;;;;;;;;;;5060007;28;20066;-63
2022/07/14 07:16:31;;;;;;;1.58;1.58;;;;;;;;;;5056888;28;20021;-64
2022/07/14 07:18:56;;;;;;;2.00;1.80;;;;;;;;;;5042989;28;20459;-64
2022/07/14 07:21:22;;;;;;;2.35;2.13;;;;;;;;;;5028299;28;20036;-65
2022/07/14 07:23:47;;;;;;;2.05;1.90;;;;;;;;;;5058373;28;20082;-64
2022/07/14 07:26:13;;;;;;;2.15;2.15;;;;;;;;;;5057714;28;20040;-64
2022/07/14 07:28:38;;;;;;;2.72;2.55;;;;;;;;;;5057576;28;20094;-63
2022/07/14 07:31:04;;;;;;;2.67;1.92;;;;;;;;;;5040979;28;20041;-64
2022/07/14 07:33:29;;;;;;;2.30;2.20;;;;;;;;;;5059431;28;20434;-64
2022/07/14 07:35:54;;;;;;;2.10;2.00;;;;;;;;;;5056505;28;20064;-64
2022/07/14 07:38:19;;;;;;;2.25;2.03;;;;;;;;;;5048398;28;20174;-65
2022/07/14 07:40:47;;;;;;;2.47;2.30;;;;;;;;;;5078418;28;20036;-64
2022/07/14 07:43:12;;;;;;;2.20;2.10;;;;;;;;;;5078610;28;20271;-65
2022/07/14 07:45:38;;;;;;;1.75;1.75;;;;;;;;;;5075982;28;20037;-64
2022/07/14 07:48:04;;;;;;;2.35;2.25;;;;;;;;;;5076733;28;20538;-63
2022/07/14 07:50:29;;;;;;;2.60;1.80;;;;;;;;;;5078346;28;20028;-65
2022/07/14 07:52:55;;;;;;;2.55;2.45;;;;;;;;;;5077905;28;20085;-65
2022/07/14 07:55:20;;;;;;;2.30;2.22;;;;;;;;;;5078695;28;20035;-66
2022/07/14 07:57:45;;;;;;;2.20;2.10;;;;;;;;;;5073473;28;20024;-66
2022/07/14 08:00:11;;;;;;;2.78;2.33;;;;;;;;;;5074288;28;20055;-64
2022/07/14 08:02:43;;;;;;;2.60;2.50;;;;;;;;;;5075836;28;20111;-65
2022/07/14 08:05:08;;;;;;;4.68;2.50;;;;;;;;;;5074132;28;20020;-64
2022/07/14 08:07:33;;;;;;;3.22;2.20;;;;;;;;;;5074012;28;20466;-65
2022/07/14 08:09:59;;;;;;;2.28;2.17;;;;;;;;;;5075119;28;20482;-64
2022/07/14 08:12:24;;;;;;;2.60;2.40;;;;;;;;;;5075261;28;20028;-64
2022/07/14 08:14:50;;;;;;;2.47;2.38;;;;;;;;;;5075406;28;20406;-65
2022/07/14 08:17:20;;;;;;;2.33;2.22;;;;;;;;;;5082269;28;20395;-64
2022/07/14 08:19:45;;;;;;;2.80;2.30;;;;;;;;;;5073966;28;20115;-65
2022/07/14 08:22:10;;;;;;;2.22;2.13;;;;;;;;;;5073905;28;20027;-63
2022/07/14 08:24:36;;;;;;;2.65;2.50;;;;;;;;;;5074364;28;20031;-65
2022/07/14 08:27:01;;;;;;;2.15;1.92;;;;;;;;;;5082709;28;20036;-65
2022/07/14 08:29:27;;;;;;;1.92;1.65;;;;;;;;;;5082358;28;20035;-64
2022/07/14 08:31:52;;;;;;;2.20;2.10;;;;;;;;;;5076147;28;20527;-65
2022/07/14 08:34:18;;;;;;;3.00;2.30;;;;;;;;;;5073833;28;20032;-67
2022/07/14 08:36:43;;;;;;;2.30;2.10;;;;;;;;;;5072424;28;20036;-66
2022/07/14 08:39:08;;;;;;;2.55;2.40;;;;;;;;;;5075011;28;20670;-65
2022/07/14 08:41:35;;;;;;;2.40;2.38;;;;;;;;;;5074034;28;20028;-65
2022/07/14 08:44:00;;;;;;;2.75;2.55;;;;;;;;;;5074407;28;20032;-63
2022/07/14 08:46:26;;;;;;;2.35;2.25;;;;;;;;;;5073400;28;20028;-64
2022/07/14 08:48:52;;;;;;;2.78;2.40;;;;;;;;;;5072388;28;20039;-63
2022/07/14 08:51:17;;;;;;;3.42;2.72;;;;;;;;;;5081834;28;20480;-64
2022/07/14 08:53:44;;;;;;;2.38;2.28;;;;;;;;;;5072609;28;20036;-64
2022/07/14 08:56:09;;;;;;;2.22;2.13;;;;;;;;;;5072347;28;20040;-63
2022/07/14 08:58:35;;;;;;;2.47;2.38;;;;;;;;;;5073760;28;20107;-64
2022/07/14 09:01:00;;;;;;;5.13;2.47;;;;;;;;;;5072934;28;20092;-64
2022/07/14 09:03:25;;;;;;;2.75;2.55;;;;;;;;;;5074198;28;20064;-64
2022/07/14 09:05:51;;;;;;;4.38;3.03;;;;;;;;;;5074429;28;20028;-64
2022/07/14 09:08:17;;;;;;;2.60;2.45;;;;;;;;;;5073513;28;20424;-64
2022/07/14 09:10:43;;;;;;;2.50;2.40;;;;;;;;;;5073237;28;20058;-64
2022/07/14 09:13:13;;;;;;;3.20;2.45;;;;;;;;;;5072873;28;20059;-64
2022/07/14 09:15:45;;;;;;;3.00;2.90;;;;;;;;;;5073261;28;20496;-61
2022/07/14 09:18:17;;;;;;;2.55;2.40;;;;;;;;;;5071651;28;20020;-63
2022/07/14 09:20:43;;;;;;;2.70;2.47;;;;;;;;;;5072575;28;20046;-64
2022/07/14 09:23:08;;;;;;;2.67;2.47;;;;;;;;;;5073643;28;20521;-64
2022/07/14 09:25:34;;;;;;;2.47;2.38;;;;;;;;;;5074062;28;20112;-64
2022/07/14 09:28:00;;;;;;;2.88;2.67;;;;;;;;;;5074154;28;20024;-65
2022/07/14 09:30:26;;;;;;;2.53;2.25;;;;;;;;;;5072570;28;20036;-65
2022/07/14 09:32:53;;;;;;;2.58;2.38;;;;;;;;;;5073454;28;20135;-65
2022/07/14 09:35:20;;;;;;;3.17;2.83;;;;;;;;;;5073189;28;20028;-64
2022/07/14 09:37:46;;;;;;;3.05;2.78;;;;;;;;;;5072091;28;20039;-65
2022/07/14 09:40:15;;;;;;;2.67;2.58;;;;;;;;;;5054051;28;20027;-65
2022/07/14 09:42:57;;;;;;;2.50;2.40;;;;;;;;;;5038425;28;20040;-65
2022/07/14 09:45:33;;;;;;;2.80;2.63;;;;;;;;;;5051420;28;20685;-65
2022/07/14 09:48:07;;;;;;;2.78;2.67;;;;;;;;;;5038194;28;20509;-63
2022/07/14 09:50:32;;;;;;;2.67;2.47;;;;;;;;;;5034176;28;20029;-65
2022/07/14 09:52:58;;;;;;;2.60;2.50;;;;;;;;;;5051867;28;20025;-65
2022/07/14 09:55:23;;;;;;;3.47;3.28;;;;;;;;;;5051547;28;20467;-65
2022/07/14 09:57:48;;;;;;;2.35;2.25;;;;;;;;;;5051906;28;20041;-64
2022/07/14 10:00:18;;;;;;;3.05;2.85;;;;;;;;;;5051354;28;20039;-64
2022/07/14 10:02:43;;;;;;;2.95;2.85;;;;;;;;;;5051322;28;20048;-65
2022/07/14 10:05:09;;;;;;;2.58;2.45;;;;;;;;;;5037770;28;20166;-66
2022/07/14 10:07:36;;;;;;;3.08;2.97;;;;;;;;;;5054081;28;20032;-64
2022/07/14 10:10:05;;;;;;;2.83;2.63;;;;;;;;;;5052087;28;20497;-65
2022/07/14 10:12:30;;;;;;;3.05;2.85;;;;;;;;;;5050865;28;20021;-65
2022/07/14 10:14:59;;;;;;;3.20;2.47;;;;;;;;;;5051785;28;20512;-64
2022/07/14 10:17:25;;;;;;;2.30;2.10;;;;;;;;;;5051706;28;20060;-65
2022/07/14 10:19:51;;;;;;;3.17;2.97;;;;;;;;;;5052547;28;20037;-64
2022/07/14 10:22:17;;;;;;;2.85;2.65;;;;;;;;;;5051041;28;20553;-65
2022/07/14 10:24:42;;;;;;;2.85;2.65;;;;;;;;;;5052231;28;20037;-65
2022/07/14 10:27:08;;;;;;;3.00;2.90;;;;;;;;;;5051391;28;20086;-65
2022/07/14 10:29:34;;;;;;;2.63;2.53;;;;;;;;;;5051480;28;20041;-65
2022/07/14 10:32:02;;;;;;;3.30;3.10;;;;;;;;;;5052243;28;20029;-65
2022/07/14 10:34:27;;;;;;;3.35;3.15;;;;;;;;;;5033120;28;20115;-65
2022/07/14 10:37:01;;;;;;;2.30;2.13;;;;;;;;;;5051417;28;20032;-65
2022/07/14 10:39:32;;;;;;;3.90;3.22;;;;;;;;;;5052041;28;20295;-65
2022/07/14 10:42:05;;;;;;;2.85;2.75;;;;;;;;;;5051862;28;20024;-65
2022/07/14 10:44:31;;;;;;;3.10;3.00;;;;;;;;;;5051442;28;20044;-64
2022/07/14 10:47:09;;;;;;;2.92;2.83;;;;;;;;;;5051097;28;20123;-65
2022/07/14 10:49:53;;;;;;;2.83;2.72;;;;;;;;;;5051590;28;20548;-64
2022/07/14 10:52:25;;;;;;;3.22;3.03;;;;;;;;;;5052907;28;20067;-64
2022/07/14 10:55:07;;;;;;;2.85;2.65;;;;;;;;;;5051024;28;20220;-65
2022/07/14 10:57:33;;;;;;;3.25;2.63;;;;;;;;;;5050631;28;20033;-65
2022/07/14 10:59:59;;;;;;;3.28;3.08;;;;;;;;;;5051034;28;20033;-65
2022/07/14 11:02:24;;;;;;;3.15;2.95;;;;;;;;;;5051652;28;20341;-67
2022/07/14 11:05:02;;;;;;;8.93;8.07;;;;;;;;;;5049785;28;20024;-65
2022/07/14 11:07:43;;;;;;;4.22;3.92;;;;;;;;;;5052831;28;21085;-65
2022/07/14 11:10:14;;;;;;;3.17;3.08;;;;;;;;;;5051641;28;20578;-65
2022/07/14 11:12:58;;;;;;;3.08;2.97;;;;;;;;;;5050712;28;20111;-65
2022/07/14 11:15:38;;;;;;;2.77;2.57;;;;;;;;;;5051271;28;20036;-65
2022/07/14 11:18:18;;;;;;;3.00;2.78;;;;;;;;;;5051384;28;20079;-64
2022/07/14 11:20:51;;;;;;;2.70;2.60;;;;;;;;;;5051764;28;20067;-65
2022/07/14 11:23:17;;;;;;;2.60;2.50;;;;;;;;;;5052015;28;20021;-64
2022/07/14 11:25:43;;;;;;;3.30;3.20;;;;;;;;;;5050426;28;20025;-65
2022/07/14 11:28:28;;;;;;;5.65;2.50;;;;;;;;;;5051654;28;20442;-65
2022/07/14 11:31:12;;;;;;;2.78;2.67;;;;;;;;;;5016476;28;20135;-65
2022/07/14 11:36:17;;;;;;;2.97;2.88;;;;;;;;;;5036041;28;20060;-65
2022/07/14 11:36:27;;;;;;;2.60;2.50;;;;;;;;;;5052996;28;20024;-65
2022/07/14 11:39:12;;;;;;;2.95;2.67;;;;;;;;;;5054571;28;20083;-65
2022/07/14 11:42:06;;;;;;;3.30;3.10;;;;;;;;;;5054724;28;20029;-65
2022/07/14 11:44:31;;;;;;;2.83;2.72;;;;;;;;;;5047649;28;20044;-64
2022/07/14 11:46:58;;;;;;;2.83;2.63;;;;;;;;;;5055246;28;20060;-64
2022/07/14 11:49:24;;;;;;;2.78;2.67;;;;;;;;;;5055918;28;20138;-65
2022/07/14 11:51:49;;;;;;;3.90;3.33;;;;;;;;;;5056204;28;20028;-65
2022/07/14 11:54:16;;;;;;;2.60;2.50;;;;;;;;;;5055227;28;20538;-64
2022/07/14 11:56:41;;;;;;;2.75;2.55;;;;;;;;;;5054550;28;20152;-64
2022/07/14 11:59:08;;;;;;;2.67;2.50;;;;;;;;;;5054895;28;20062;-63
2022/07/14 12:01:35;;;;;;;3.00;2.85;;;;;;;;;;5054792;28;20035;-65
2022/07/14 12:04:07;;;;;;;3.35;3.10;;;;;;;;;;5052619;28;20028;-64
2022/07/14 12:06:33;;;;;;;2.97;2.88;;;;;;;;;;5051867;28;20386;-64
2022/07/14 12:08:58;;;;;;;3.42;3.22;;;;;;;;;;5036987;28;20036;-65
2022/07/14 12:11:23;;;;;;;3.00;2.80;;;;;;;;;;5053059;28;20115;-69
2022/07/14 12:13:51;;;;;;;3.05;2.95;;;;;;;;;;5053694;28;20044;-65
2022/07/14 12:16:16;;;;;;;3.08;2.97;;;;;;;;;;5054192;28;20029;-65
2022/07/14 12:18:42;;;;;;;2.50;2.33;;;;;;;;;;5053249;28;20020;-65
2022/07/14 12:21:08;;;;;;;2.75;2.65;;;;;;;;;;5052379;28;20099;-66
2022/07/14 12:23:33;;;;;;;2.85;2.70;;;;;;;;;;5054265;28;20476;-65
2022/07/14 12:26:00;;;;;;;3.00;2.90;;;;;;;;;;5053853;28;20356;-65
2022/07/14 12:28:26;;;;;;;3.50;3.30;;;;;;;;;;5053650;28;20520;-65
2022/07/14 12:30:55;;;;;;;3.00;2.90;;;;;;;;;;5052475;28;20036;-66
2022/07/14 12:33:28;;;;;;;3.63;2.50;;;;;;;;;;5053769;28;20492;-66
2022/07/14 12:35:57;;;;;;;3.25;3.15;;;;;;;;;;5055409;28;20051;-66
2022/07/14 12:38:23;;;;;;;3.13;2.47;;;;;;;;;;5054040;28;20320;-66
2022/07/14 12:40:51;;;;;;;4.30;3.47;;;;;;;;;;5052944;28;20032;-66
2022/07/14 12:43:16;;;;;;;4.88;3.33;;;;;;;;;;5040271;28;20028;-65
2022/07/14 12:45:59;;;;;;;2.53;2.42;;;;;;;;;;5052923;28;20028;-66
2022/07/14 12:48:24;;;;;;;2.90;2.80;;;;;;;;;;5052553;28;20024;-65
2022/07/14 12:50:49;;;;;;;3.55;3.30;;;;;;;;;;5035753;28;20035;-66
2022/07/14 12:53:17;;;;;;;3.00;2.80;;;;;;;;;;5053792;28;20120;-66
2022/07/14 12:55:45;;;;;;;2.97;2.88;;;;;;;;;;5054783;28;20105;-66
2022/07/14 12:58:11;;;;;;;3.42;3.20;;;;;;;;;;5053622;28;20055;-65
2022/07/14 13:00:39;;;;;;;3.00;2.80;;;;;;;;;;5053415;28;20519;-66
2022/07/14 13:03:11;;;;;;;4.00;3.75;;;;;;;;;;5021986;28;20467;-66
2022/07/14 13:05:43;;;;;;;3.42;3.15;;;;;;;;;;5054676;28;20034;-65
2022/07/14 13:08:28;;;;;;;2.85;2.75;;;;;;;;;;5036328;28;20382;-65
2022/07/14 13:10:53;;;;;;;3.63;3.53;;;;;;;;;;5053815;28;20454;-65
2022/07/14 13:13:26;;;;;;;3.20;3.00;;;;;;;;;;5052876;28;20041;-67
2022/07/14 13:15:51;;;;;;;3.08;2.78;;;;;;;;;;5053137;28;20123;-66
2022/07/14 13:18:16;;;;;;;3.40;2.90;;;;;;;;;;5053155;28;20047;-66
2022/07/14 13:20:54;;;;;;;3.22;2.90;;;;;;;;;;5053089;28;20033;-65
2022/07/14 13:23:19;;;;;;;2.63;2.53;;;;;;;;;;5053267;28;20021;-65
2022/07/14 13:25:44;;;;;;;3.07;2.83;;;;;;;;;;5053258;28;20086;-64
2022/07/14 13:28:10;;;;;;;3.45;3.15;;;;;;;;;;5039113;28;20335;-64
2022/07/14 13:30:35;;;;;;;2.55;2.50;;;;;;;;;;5052874;28;20037;-64
2022/07/14 13:33:00;;;;;;;3.33;3.08;;;;;;;;;;5050919;28;20037;-65
2022/07/14 13:35:26;;;;;;;2.63;2.50;;;;;;;;;;5032836;28;20035;-65
2022/07/14 13:37:51;;;;;;;3.53;3.33;;;;;;;;;;5033123;28;20040;-66
2022/07/14 13:40:16;;;;;;;3.25;3.15;;;;;;;;;;5052933;28;20698;-65
2022/07/14 13:42:41;;;;;;;3.33;3.10;;;;;;;;;;5051232;28;20154;-65
2022/07/14 13:45:07;;;;;;;3.13;3.03;;;;;;;;;;5052846;28;20037;-65
2022/07/14 13:47:32;;;;;;;4.00;2.67;;;;;;;;;;5052877;28;20408;-65
2022/07/14 13:52:41;;;;;;;3.38;3.17;;;;;;;;;;5051952;28;20143;-66
2022/07/14 13:55:06;;;;;;;4.35;2.97;;;;;;;;;;5051864;28;20144;-65
2022/07/14 13:57:32;;;;;;;4.22;4.03;;;;;;;;;;5052508;28;20064;-65
2022/07/14 13:59:57;;;;;;;3.00;2.80;;;;;;;;;;5051202;28;20469;-65
2022/07/14 14:02:22;;;;;;;3.22;3.03;;;;;;;;;;5051965;28;20028;-65
2022/07/14 14:04:48;;;;;;;3.78;3.45;;;;;;;;;;5033701;28;20029;-65
2022/07/14 14:07:13;;;;;;;3.05;2.95;;;;;;;;;;5052191;28;20535;-65
2022/07/14 14:09:38;;;;;;;2.50;2.40;;;;;;;;;;5051462;28;20020;-65
2022/07/14 14:12:05;;;;;;;3.30;3.20;;;;;;;;;;5052327;28;20039;-65
2022/07/14 14:14:30;;;;;;;3.53;2.70;;;;;;;;;;5050827;28;20054;-65
2022/07/14 14:16:55;;;;;;;3.40;3.10;;;;;;;;;;5051527;28;20542;-65
2022/07/14 14:19:20;;;;;;;3.15;3.05;;;;;;;;;;5049569;28;20468;-65
2022/07/14 14:21:46;;;;;;;2.95;2.85;;;;;;;;;;5049922;28;20288;-65
2022/07/14 14:24:11;;;;;;;3.40;3.22;;;;;;;;;;5051914;28;20025;-65
2022/07/14 14:26:37;;;;;;;3.40;3.28;;;;;;;;;;5051802;28;20493;-66
2022/07/14 14:29:02;;;;;;;4.00;3.80;;;;;;;;;;5043868;28;20028;-64
2022/07/14 14:31:27;;;;;;;3.35;3.15;;;;;;;;;;5043008;28;20029;-65
2022/07/14 14:33:52;;;;;;;3.35;3.15;;;;;;;;;;5051025;28;20032;-65
2022/07/14 14:36:18;;;;;;;3.45;3.17;;;;;;;;;;5053629;28;20788;-66
2022/07/14 14:38:43;;;;;;;3.70;3.50;;;;;;;;;;5051433;28;20059;-65
2022/07/14 14:41:08;;;;;;;3.20;2.75;;;;;;;;;;5032938;28;20386;-65
2022/07/14 14:43:34;;;;;;;3.00;2.80;;;;;;;;;;5037512;28;20040;-65
2022/07/14 14:45:59;;;;;;;3.15;3.00;;;;;;;;;;5052573;28;20057;-66
2022/07/14 14:48:24;;;;;;;3.17;2.92;;;;;;;;;;5052728;28;20028;-65